Nearby METAR Reports

(scroll for additional cities)

KPSP - Palm Springs, California, USA
Distance from station: WNW 7mi, 11km
Updated: Mon, 24-Apr-2017 7:53am PDT
Clear
Clear
 Wind from W
Wind: W 8 mph , 13 km/h, Gust: 18 mph , 30 km/h
Temperature: 72°F , 22°C
Dew Point: 45°F , 7°C
Humidity: 38%
Barometer: 29.73 inHg , 1006.8 hPa
Clouds: Clear
Visibility: 10 miles , 16 km
2017/04/24 14:53 KPSP 241453Z 27007G16KT 10SM CLR 22/07 A2973 RMK AO2 SLP064 T02170072 53015
KTRM - Thermal/Palm Spg, California, USA
Distance from station: SE 16mi, 26km
Updated: Mon, 24-Apr-2017 7:52am PDT
Clear
Clear
 Wind from NW
Wind: NW 16 mph , 26 km/h
Temperature: 72°F , 22°C
Dew Point: 48°F , 9°C
Humidity: 44%
Barometer: 29.69 inHg , 1005.4 hPa
Clouds: Clear
Visibility: 10 miles , 16 km
2017/04/24 14:52 KTRM 241452Z AUTO 32014KT 10SM CLR 22/09 A2969 RMK AO2 SLP056 T02220089 51016
 
KNXP - Twentynine Palms, California, USA
Distance from station: NNE 37mi, 60km
Updated: Mon, 24-Apr-2017 7:56am PDT
Clear
Clear
 Wind from NNW
Wind: NNW 14 mph , 22 km/h, Gust: 24 mph , 39 km/h
Temperature: 66°F , 19°C
Dew Point: 27°F , -3°C
Humidity: 22%
Barometer: 29.86 inHg , 1011.2 hPa
Clouds: Clear
Visibility: 9 miles , 14 km
2017/04/24 14:56 KNXP 241456Z AUTO 33012G21KT 9SM CLR 19/M03 A2986 RMK AO2 PK WND 30026/1420 SLP078 T01941028 53010
KL35 - Big Bear City, California, USA
Distance from station: NW 43mi, 69km
Updated: Mon, 24-Apr-2017 7:55am PDT
Clear
Clear
 Wind from SW
Wind: SW 17 mph , 28 km/h, Gust: 24 mph , 39 km/h
Temperature: 52°F , 11°C
Dew Point: 16°F , -9°C
Humidity: 24%
Barometer: 30.00 inHg , 1015.9 hPa
Clouds: Clear
Visibility: 10 miles , 16 km
2017/04/24 14:55 KL35 241455Z AUTO 23015G21KT 10SM CLR 11/M09 A3000 RMK AO2
 
KF70 - Murrieta/Temecula, California, USA
Distance from station: WSW 45mi, 73km
Updated: Mon, 24-Apr-2017 7:55am PDT
Overcast
Overcast
 Wind from S
Wind: S 6 mph , 9 km/h
Temperature: 57°F , 14°C
Dew Point: 48°F , 9°C
Humidity: 72%
Barometer: 29.93 inHg , 1013.5 hPa
Clouds: Overcast
Visibility: 10 miles , 16 km
Cloud details: Overcast 1900 ft
2017/04/24 14:55 KF70 241455Z AUTO 17005KT 10SM OVC019 14/09 A2993 RMK AO1
KRIV - Riverside/March, California, USA
Distance from station: W 51mi, 82km
Updated: Mon, 24-Apr-2017 7:58am PDT
Overcast
Overcast
 Wind from SSE
Wind: SSE 6 mph , 9 km/h
Temperature: 57°F , 14°C
Dew Point: 52°F , 11°C
Humidity: 82%
Barometer: 29.92 inHg , 1013.2 hPa
Clouds: Overcast
Visibility: 10 miles , 16 km
Cloud details: Overcast 1700 ft
2017/04/24 14:58 KRIV 241458Z AUTO 15005KT 10SM OVC017 14/11 A2992 RMK AO2 SLP126 T01390114 52013
 
KSBD - San Bernardino, California, USA
Distance from station: WNW 54mi, 86km
Updated: Mon, 24-Apr-2017 7:45am PDT
Mist, Overcast
Mist, Overcast
 Wind from WSW
Wind: WSW 3 mph , 6 km/h
Temperature: 59°F , 15°C
Dew Point: 54°F , 12°C
Humidity: 82%
Barometer: 29.92 inHg , 1013.2 hPa
Summary: Mist
Clouds: Overcast
Visibility: 4 miles , 6 km
Cloud details: Partly Cloudy 1400 ft
Overcast 1900 ft
2017/04/24 14:45 KSBD 241445Z 24003KT 4SM BR SCT014 OVC019 15/12 A2992
KRNM - Ramona, California, USA
Distance from station: SSW 60mi, 96km
Updated: Mon, 24-Apr-2017 7:53am PDT
Overcast
Overcast
 Wind from ESE
Wind: ESE 3 mph , 6 km/h
Temperature: 57°F , 14°C
Dew Point: 52°F , 11°C
Humidity: 82%
Barometer: 29.93 inHg , 1013.5 hPa
Clouds: Overcast
Visibility: 10 miles , 16 km
Cloud details: Overcast 1600 ft
2017/04/24 14:53 KRNM 241453Z 12003KT 10SM OVC016 14/11 A2993 RMK AO2 SLP126 T01390106 51016
 
KRAL - Riverside, California, USA
Distance from station: W 62mi, 100km
Updated: Mon, 24-Apr-2017 7:53am PDT
Overcast
Overcast
 Wind from calm
Wind: Calm
Temperature: 59°F , 15°C
Dew Point: 55°F , 13°C
Humidity: 88%
Barometer: 29.92 inHg , 1013.2 hPa
Clouds: Overcast
Visibility: 9 miles , 14 km
Cloud details: Overcast 2200 ft
2017/04/24 14:53 KRAL 241453Z 00000KT 9SM OVC022 15/13 A2992 RMK AO2 SLP121 T01500128 53015
KOKB - Oceanside, California, USA
Distance from station: SW 68mi, 109km
Updated: Mon, 24-Apr-2017 7:52am PDT
Overcast
Overcast
 Wind from SSE
Wind: SSE 7 mph , 11 km/h
Temperature: 64°F , 18°C
Dew Point: 54°F , 12°C
Humidity: 68%
Barometer: 29.91 inHg , 1012.9 hPa
Clouds: Overcast
Visibility: 8 miles , 13 km
Cloud details: Few Clouds 1900 ft
Overcast 2900 ft
2017/04/24 14:52 KOKB 241452Z AUTO 15006KT 8SM FEW019 OVC029 18/12 A2991 RMK AO2 SLP128 T01780122 51016
 
KONT - Ontario, California, USA
Distance from station: WNW 71mi, 114km
Updated: Mon, 24-Apr-2017 7:53am PDT
Haze, Overcast
Haze, Overcast
 Wind from SW
Wind: SW 6 mph , 9 km/h
Temperature: 57°F , 14°C
Dew Point: 52°F , 11°C
Humidity: 82%
Barometer: 29.92 inHg , 1013.2 hPa
Summary: Haze
Clouds: Overcast
Visibility: 5 miles , 8 km
Cloud details: Overcast 2000 ft
2017/04/24 14:53 KONT 241453Z 22005KT 5SM HZ OVC020 14/11 A2992 RMK AO2 SLP125 CIG 018V023 T01440111 53013
KNJK - El Centro Naf, California, USA
Distance from station: SSE 78mi, 126km
Updated: Mon, 24-Apr-2017 7:56am PDT
Partly Cloudy
Partly Cloudy
 Wind from W
Wind: W 22 mph , 35 km/h, Gust: 30 mph , 48 km/h
Temperature: 79°F , 26°C
Dew Point: 30°F , -1°C
Humidity: 17%
Barometer: 29.73 inHg , 1006.8 hPa
Clouds: Partly Cloudy
Visibility: 10 miles , 16 km
Cloud details: Partly Cloudy 25000 ft
2017/04/24 14:56 KNJK 241456Z 26019G26KT 10SM SCT250 26/M01 A2973 RMK AO2 PK WND 28027/1421 SLP082 P0000 60000 T02611011 53016 $
 
KSEE - San Diego/Santee, California, USA
Distance from station: SSW 74mi, 120km
Updated: Mon, 24-Apr-2017 7:47am PDT
Overcast
Overcast
 Wind from varies
Wind: varies 7 mph , 11 km/h
Temperature: 61°F , 16°C
Dew Point: 52°F , 11°C
Humidity: 72%
Barometer: 29.93 inHg , 1013.5 hPa
Clouds: Overcast
Visibility: 10 miles , 16 km
Cloud details: Overcast 2100 ft
2017/04/24 14:47 KSEE 241447Z VRB06KT 10SM OVC021 16/11 A2993
KCNO - Chino, California, USA
Distance from station: W 72mi, 116km
Updated: Mon, 24-Apr-2017 7:53am PDT
Overcast
Overcast
 Wind from W
Wind: W 3 mph , 6 km/h
Temperature: 61°F , 16°C
Dew Point: 54°F , 12°C
Humidity: 77%
Barometer: 29.94 inHg , 1013.9 hPa
Clouds: Overcast
Visibility: 7 miles , 11 km
Cloud details: Overcast 2400 ft
2017/04/24 14:53 KCNO 241453Z 26003KT 7SM OVC024 16/12 A2994 RMK AO2 SLP133 T01610117 53015